sensor_id;sensor_type;location;lat;lon;timestamp;P1;durP1;ratioP1;P2;durP2;ratioP2
23702;SDS011;12030;50.376;8.762;2023-04-01T00:01:54;6.10;;;1.83;;
23702;SDS011;12030;50.376;8.762;2023-04-01T00:04:20;6.37;;;1.37;;
23702;SDS011;12030;50.376;8.762;2023-04-01T00:06:46;6.10;;;1.87;;
23702;SDS011;12030;50.376;8.762;2023-04-01T00:09:12;4.13;;;1.40;;
23702;SDS011;12030;50.376;8.762;2023-04-01T00:11:38;5.63;;;1.73;;
23702;SDS011;12030;50.376;8.762;2023-04-01T00:14:04;7.57;;;1.70;;
23702;SDS011;12030;50.376;8.762;2023-04-01T00:16:32;5.53;;;1.60;;
23702;SDS011;12030;50.376;8.762;2023-04-01T00:18:57;7.47;;;1.60;;
23702;SDS011;12030;50.376;8.762;2023-04-01T00:21:24;4.93;;;1.47;;
23702;SDS011;12030;50.376;8.762;2023-04-01T00:23:50;4.27;;;1.43;;
23702;SDS011;12030;50.376;8.762;2023-04-01T00:26:16;6.23;;;1.70;;
23702;SDS011;12030;50.376;8.762;2023-04-01T00:28:44;4.43;;;1.50;;
23702;SDS011;12030;50.376;8.762;2023-04-01T00:31:11;8.13;;;1.57;;
23702;SDS011;12030;50.376;8.762;2023-04-01T00:33:37;5.80;;;1.30;;
23702;SDS011;12030;50.376;8.762;2023-04-01T00:36:21;5.03;;;1.53;;
23702;SDS011;12030;50.376;8.762;2023-04-01T00:38:48;4.33;;;1.70;;
23702;SDS011;12030;50.376;8.762;2023-04-01T00:41:14;5.20;;;1.57;;
23702;SDS011;12030;50.376;8.762;2023-04-01T00:43:42;4.23;;;1.50;;
23702;SDS011;12030;50.376;8.762;2023-04-01T00:46:09;7.53;;;1.70;;
23702;SDS011;12030;50.376;8.762;2023-04-01T00:48:36;4.93;;;1.50;;
23702;SDS011;12030;50.376;8.762;2023-04-01T00:51:09;7.07;;;1.70;;
23702;SDS011;12030;50.376;8.762;2023-04-01T00:53:42;5.10;;;1.53;;
23702;SDS011;12030;50.376;8.762;2023-04-01T00:56:11;3.00;;;1.47;;
23702;SDS011;12030;50.376;8.762;2023-04-01T00:58:40;6.50;;;1.50;;
23702;SDS011;12030;50.376;8.762;2023-04-01T01:01:11;5.33;;;1.60;;
23702;SDS011;12030;50.376;8.762;2023-04-01T01:03:37;5.83;;;1.33;;
23702;SDS011;12030;50.376;8.762;2023-04-01T01:11:43;5.80;;;1.70;;
23702;SDS011;12030;50.376;8.762;2023-04-01T01:14:25;7.20;;;2.03;;
23702;SDS011;12030;50.376;8.762;2023-04-01T01:16:55;7.70;;;1.57;;
23702;SDS011;12030;50.376;8.762;2023-04-01T01:19:49;4.23;;;1.30;;
23702;SDS011;12030;50.376;8.762;2023-04-01T01:25:25;7.77;;;1.80;;
23702;SDS011;12030;50.376;8.762;2023-04-01T01:31:00;4.70;;;1.50;;
23702;SDS011;12030;50.376;8.762;2023-04-01T01:36:40;6.47;;;1.40;;
23702;SDS011;12030;50.376;8.762;2023-04-01T01:39:10;5.37;;;1.60;;
23702;SDS011;12030;50.376;8.762;2023-04-01T01:41:37;4.97;;;1.40;;
23702;SDS011;12030;50.376;8.762;2023-04-01T01:44:04;4.20;;;1.67;;
23702;SDS011;12030;50.376;8.762;2023-04-01T01:46:33;5.17;;;1.60;;
23702;SDS011;12030;50.376;8.762;2023-04-01T01:48:59;7.87;;;1.80;;
23702;SDS011;12030;50.376;8.762;2023-04-01T01:51:27;4.07;;;1.43;;
23702;SDS011;12030;50.376;8.762;2023-04-01T01:53:53;4.37;;;1.50;;
23702;SDS011;12030;50.376;8.762;2023-04-01T01:56:20;4.50;;;1.20;;
23702;SDS011;12030;50.376;8.762;2023-04-01T01:58:52;4.30;;;1.43;;
23702;SDS011;12030;50.376;8.762;2023-04-01T02:01:24;5.63;;;1.50;;
23702;SDS011;12030;50.376;8.762;2023-04-01T02:03:52;3.77;;;1.47;;
23702;SDS011;12030;50.376;8.762;2023-04-01T02:06:21;3.40;;;1.20;;
23702;SDS011;12030;50.376;8.762;2023-04-01T02:08:55;4.23;;;1.57;;
23702;SDS011;12030;50.376;8.762;2023-04-01T02:11:43;4.43;;;1.27;;
23702;SDS011;12030;50.376;8.762;2023-04-01T02:14:17;3.43;;;1.33;;
23702;SDS011;12030;50.376;8.762;2023-04-01T02:16:51;4.53;;;1.20;;
23702;SDS011;12030;50.376;8.762;2023-04-01T02:19:22;4.80;;;1.33;;
23702;SDS011;12030;50.376;8.762;2023-04-01T02:21:55;6.10;;;1.43;;
23702;SDS011;12030;50.376;8.762;2023-04-01T02:24:25;5.30;;;1.53;;
23702;SDS011;12030;50.376;8.762;2023-04-01T02:26:53;4.20;;;1.13;;
23702;SDS011;12030;50.376;8.762;2023-04-01T02:29:22;7.03;;;1.60;;
23702;SDS011;12030;50.376;8.762;2023-04-01T02:31:50;3.63;;;1.40;;
23702;SDS011;12030;50.376;8.762;2023-04-01T02:34:18;5.53;;;1.67;;
23702;SDS011;12030;50.376;8.762;2023-04-01T02:36:44;5.57;;;1.50;;
23702;SDS011;12030;50.376;8.762;2023-04-01T02:39:11;4.53;;;1.37;;
23702;SDS011;12030;50.376;8.762;2023-04-01T02:41:39;4.63;;;1.50;;
23702;SDS011;12030;50.376;8.762;2023-04-01T02:44:05;6.23;;;1.50;;
23702;SDS011;12030;50.376;8.762;2023-04-01T02:46:32;5.43;;;1.17;;
23702;SDS011;12030;50.376;8.762;2023-04-01T02:48:57;3.03;;;1.30;;
23702;SDS011;12030;50.376;8.762;2023-04-01T02:51:23;4.77;;;1.17;;
23702;SDS011;12030;50.376;8.762;2023-04-01T02:53:48;5.90;;;1.30;;
23702;SDS011;12030;50.376;8.762;2023-04-01T02:56:14;3.33;;;1.17;;
23702;SDS011;12030;50.376;8.762;2023-04-01T02:58:39;3.77;;;1.07;;
23702;SDS011;12030;50.376;8.762;2023-04-01T03:01:05;4.80;;;1.10;;
23702;SDS011;12030;50.376;8.762;2023-04-01T03:03:30;4.33;;;1.40;;
23702;SDS011;12030;50.376;8.762;2023-04-01T03:05:56;4.80;;;1.20;;
23702;SDS011;12030;50.376;8.762;2023-04-01T03:08:23;2.60;;;0.90;;
23702;SDS011;12030;50.376;8.762;2023-04-01T03:10:49;3.97;;;1.17;;
23702;SDS011;12030;50.376;8.762;2023-04-01T03:13:14;4.07;;;1.13;;
23702;SDS011;12030;50.376;8.762;2023-04-01T03:15:40;4.57;;;1.20;;
23702;SDS011;12030;50.376;8.762;2023-04-01T03:18:06;3.97;;;1.50;;
23702;SDS011;12030;50.376;8.762;2023-04-01T03:20:31;5.07;;;1.20;;
23702;SDS011;12030;50.376;8.762;2023-04-01T03:22:57;4.47;;;1.20;;
23702;SDS011;12030;50.376;8.762;2023-04-01T03:25:22;4.20;;;1.27;;
23702;SDS011;12030;50.376;8.762;2023-04-01T03:27:48;5.43;;;1.23;;
23702;SDS011;12030;50.376;8.762;2023-04-01T03:30:14;4.70;;;1.30;;
23702;SDS011;12030;50.376;8.762;2023-04-01T03:32:39;6.03;;;1.57;;
23702;SDS011;12030;50.376;8.762;2023-04-01T03:35:05;2.70;;;0.90;;
23702;SDS011;12030;50.376;8.762;2023-04-01T03:37:31;4.03;;;1.13;;
23702;SDS011;12030;50.376;8.762;2023-04-01T03:39:57;6.17;;;1.13;;
23702;SDS011;12030;50.376;8.762;2023-04-01T03:42:22;3.13;;;1.10;;
23702;SDS011;12030;50.376;8.762;2023-04-01T03:44:48;5.10;;;1.30;;
23702;SDS011;12030;50.376;8.762;2023-04-01T03:47:13;5.10;;;1.33;;
23702;SDS011;12030;50.376;8.762;2023-04-01T03:49:39;3.23;;;1.13;;
23702;SDS011;12030;50.376;8.762;2023-04-01T03:52:07;5.03;;;1.20;;
23702;SDS011;12030;50.376;8.762;2023-04-01T03:54:34;3.93;;;1.10;;
23702;SDS011;12030;50.376;8.762;2023-04-01T03:56:59;3.07;;;1.37;;
23702;SDS011;12030;50.376;8.762;2023-04-01T03:59:25;6.10;;;1.30;;
23702;SDS011;12030;50.376;8.762;2023-04-01T04:01:51;4.63;;;1.17;;
23702;SDS011;12030;50.376;8.762;2023-04-01T04:04:16;4.67;;;1.43;;
23702;SDS011;12030;50.376;8.762;2023-04-01T04:06:42;4.57;;;1.30;;
23702;SDS011;12030;50.376;8.762;2023-04-01T04:09:08;4.33;;;1.47;;
23702;SDS011;12030;50.376;8.762;2023-04-01T04:11:33;4.87;;;1.27;;
23702;SDS011;12030;50.376;8.762;2023-04-01T04:13:59;4.67;;;1.10;;
23702;SDS011;12030;50.376;8.762;2023-04-01T04:16:25;3.37;;;1.10;;
23702;SDS011;12030;50.376;8.762;2023-04-01T04:18:50;5.03;;;1.30;;
23702;SDS011;12030;50.376;8.762;2023-04-01T04:21:16;4.70;;;1.40;;
23702;SDS011;12030;50.376;8.762;2023-04-01T04:23:42;2.70;;;1.17;;
23702;SDS011;12030;50.376;8.762;2023-04-01T04:26:09;5.07;;;1.20;;
23702;SDS011;12030;50.376;8.762;2023-04-01T04:28:36;4.10;;;1.20;;
23702;SDS011;12030;50.376;8.762;2023-04-01T04:31:02;4.10;;;1.30;;
23702;SDS011;12030;50.376;8.762;2023-04-01T04:33:30;3.03;;;1.20;;
23702;SDS011;12030;50.376;8.762;2023-04-01T04:35:56;5.73;;;1.40;;
23702;SDS011;12030;50.376;8.762;2023-04-01T04:38:23;4.20;;;1.10;;
23702;SDS011;12030;50.376;8.762;2023-04-01T04:40:49;7.37;;;1.57;;
23702;SDS011;12030;50.376;8.762;2023-04-01T04:43:15;4.17;;;1.47;;
23702;SDS011;12030;50.376;8.762;2023-04-01T04:45:42;5.27;;;1.43;;
23702;SDS011;12030;50.376;8.762;2023-04-01T04:48:08;3.80;;;1.33;;
23702;SDS011;12030;50.376;8.762;2023-04-01T04:50:35;4.00;;;1.07;;
23702;SDS011;12030;50.376;8.762;2023-04-01T04:53:01;6.27;;;1.47;;
23702;SDS011;12030;50.376;8.762;2023-04-01T04:55:27;4.70;;;1.40;;
23702;SDS011;12030;50.376;8.762;2023-04-01T04:57:53;5.23;;;1.20;;
23702;SDS011;12030;50.376;8.762;2023-04-01T05:00:19;4.23;;;1.40;;
23702;SDS011;12030;50.376;8.762;2023-04-01T05:02:44;4.03;;;1.47;;
23702;SDS011;12030;50.376;8.762;2023-04-01T05:05:10;3.90;;;1.33;;
23702;SDS011;12030;50.376;8.762;2023-04-01T05:07:37;5.80;;;1.43;;
23702;SDS011;12030;50.376;8.762;2023-04-01T05:10:02;3.97;;;1.30;;
23702;SDS011;12030;50.376;8.762;2023-04-01T05:12:28;2.87;;;1.20;;
23702;SDS011;12030;50.376;8.762;2023-04-01T05:14:54;4.37;;;1.30;;
23702;SDS011;12030;50.376;8.762;2023-04-01T05:17:19;4.50;;;1.70;;
23702;SDS011;12030;50.376;8.762;2023-04-01T05:19:45;4.40;;;1.13;;
23702;SDS011;12030;50.376;8.762;2023-04-01T05:22:11;5.37;;;1.23;;
23702;SDS011;12030;50.376;8.762;2023-04-01T05:24:36;3.80;;;1.13;;
23702;SDS011;12030;50.376;8.762;2023-04-01T05:27:02;2.73;;;1.07;;
23702;SDS011;12030;50.376;8.762;2023-04-01T05:29:27;4.33;;;1.37;;
23702;SDS011;12030;50.376;8.762;2023-04-01T05:31:53;4.73;;;1.33;;
23702;SDS011;12030;50.376;8.762;2023-04-01T05:34:18;4.57;;;1.20;;
23702;SDS011;12030;50.376;8.762;2023-04-01T05:36:44;3.50;;;1.10;;
23702;SDS011;12030;50.376;8.762;2023-04-01T05:39:10;5.73;;;1.43;;
23702;SDS011;12030;50.376;8.762;2023-04-01T05:41:36;3.57;;;1.30;;
23702;SDS011;12030;50.376;8.762;2023-04-01T05:44:02;7.17;;;1.60;;
23702;SDS011;12030;50.376;8.762;2023-04-01T05:46:27;4.07;;;1.27;;
23702;SDS011;12030;50.376;8.762;2023-04-01T05:48:53;4.23;;;1.37;;
23702;SDS011;12030;50.376;8.762;2023-04-01T05:51:19;3.40;;;1.40;;
23702;SDS011;12030;50.376;8.762;2023-04-01T05:53:45;4.77;;;1.50;;
23702;SDS011;12030;50.376;8.762;2023-04-01T05:56:10;4.97;;;1.40;;
23702;SDS011;12030;50.376;8.762;2023-04-01T05:58:37;3.43;;;1.23;;
23702;SDS011;12030;50.376;8.762;2023-04-01T06:01:04;5.60;;;1.30;;
23702;SDS011;12030;50.376;8.762;2023-04-01T06:03:31;6.00;;;1.53;;
23702;SDS011;12030;50.376;8.762;2023-04-01T06:05:57;5.97;;;1.40;;
23702;SDS011;12030;50.376;8.762;2023-04-01T06:08:23;4.87;;;1.50;;
23702;SDS011;12030;50.376;8.762;2023-04-01T06:16:34;4.30;;;1.27;;
23702;SDS011;12030;50.376;8.762;2023-04-01T06:30:40;4.17;;;1.10;;
23702;SDS011;12030;50.376;8.762;2023-04-01T06:38:58;3.30;;;1.20;;
23702;SDS011;12030;50.376;8.762;2023-04-01T06:49:56;3.20;;;1.17;;
23702;SDS011;12030;50.376;8.762;2023-04-01T06:52:58;3.63;;;0.90;;
23702;SDS011;12030;50.376;8.762;2023-04-01T06:55:47;2.73;;;0.97;;
23702;SDS011;12030;50.376;8.762;2023-04-01T06:58:34;2.13;;;0.80;;
23702;SDS011;12030;50.376;8.762;2023-04-01T07:01:06;3.20;;;1.10;;
23702;SDS011;12030;50.376;8.762;2023-04-01T07:03:39;4.13;;;1.10;;
23702;SDS011;12030;50.376;8.762;2023-04-01T07:09:02;3.50;;;0.87;;
23702;SDS011;12030;50.376;8.762;2023-04-01T07:11:32;4.13;;;1.00;;
23702;SDS011;12030;50.376;8.762;2023-04-01T07:14:00;5.03;;;0.93;;
23702;SDS011;12030;50.376;8.762;2023-04-01T07:16:32;3.60;;;0.90;;
23702;SDS011;12030;50.376;8.762;2023-04-01T07:19:16;2.00;;;0.80;;
23702;SDS011;12030;50.376;8.762;2023-04-01T07:21:58;1.93;;;0.67;;
23702;SDS011;12030;50.376;8.762;2023-04-01T07:24:34;4.20;;;1.00;;
23702;SDS011;12030;50.376;8.762;2023-04-01T07:27:02;3.10;;;0.90;;
23702;SDS011;12030;50.376;8.762;2023-04-01T07:29:30;2.03;;;0.50;;
23702;SDS011;12030;50.376;8.762;2023-04-01T07:40:16;2.63;;;0.60;;
23702;SDS011;12030;50.376;8.762;2023-04-01T07:48:26;2.77;;;0.93;;
23702;SDS011;12030;50.376;8.762;2023-04-01T07:51:23;3.77;;;0.77;;
23702;SDS011;12030;50.376;8.762;2023-04-01T07:54:49;1.20;;;0.60;;
23702;SDS011;12030;50.376;8.762;2023-04-01T08:08:08;1.47;;;0.50;;
23702;SDS011;12030;50.376;8.762;2023-04-01T08:18:46;1.30;;;0.87;;
23702;SDS011;12030;50.376;8.762;2023-04-01T08:21:24;1.27;;;0.57;;
23702;SDS011;12030;50.376;8.762;2023-04-01T08:23:55;2.93;;;0.60;;
23702;SDS011;12030;50.376;8.762;2023-04-01T08:26:36;1.83;;;0.43;;
23702;SDS011;12030;50.376;8.762;2023-04-01T08:29:11;1.83;;;0.70;;
23702;SDS011;12030;50.376;8.762;2023-04-01T08:34:24;1.87;;;0.50;;
23702;SDS011;12030;50.376;8.762;2023-04-01T08:37:05;1.50;;;0.67;;
23702;SDS011;12030;50.376;8.762;2023-04-01T08:39:36;3.13;;;0.60;;
23702;SDS011;12030;50.376;8.762;2023-04-01T08:47:42;1.33;;;0.30;;
23702;SDS011;12030;50.376;8.762;2023-04-01T08:58:45;1.57;;;0.50;;
23702;SDS011;12030;50.376;8.762;2023-04-01T09:01:49;1.60;;;0.30;;
23702;SDS011;12030;50.376;8.762;2023-04-01T09:18:15;2.07;;;0.63;;
23702;SDS011;12030;50.376;8.762;2023-04-01T09:28:49;0.63;;;0.30;;
23702;SDS011;12030;50.376;8.762;2023-04-01T09:42:43;1.37;;;0.40;;
23702;SDS011;12030;50.376;8.762;2023-04-01T09:54:06;0.60;;;0.20;;
23702;SDS011;12030;50.376;8.762;2023-04-01T10:00:10;1.17;;;0.40;;
23702;SDS011;12030;50.376;8.762;2023-04-01T10:03:12;1.83;;;0.30;;
23702;SDS011;12030;50.376;8.762;2023-04-01T10:06:01;0.97;;;0.40;;
23702;SDS011;12030;50.376;8.762;2023-04-01T10:13:48;0.50;;;0.33;;
23702;SDS011;12030;50.376;8.762;2023-04-01T10:24:46;1.30;;;0.40;;
23702;SDS011;12030;50.376;8.762;2023-04-01T10:39:17;1.17;;;0.90;;
23702;SDS011;12030;50.376;8.762;2023-04-01T10:56:32;0.77;;;0.23;;
23702;SDS011;12030;50.376;8.762;2023-04-01T11:36:42;1.17;;;0.50;;
23702;SDS011;12030;50.376;8.762;2023-04-01T11:39:33;1.83;;;0.50;;
23702;SDS011;12030;50.376;8.762;2023-04-01T11:45:19;0.73;;;0.30;;
23702;SDS011;12030;50.376;8.762;2023-04-01T11:47:52;0.70;;;0.40;;
23702;SDS011;12030;50.376;8.762;2023-04-01T11:50:24;0.83;;;0.37;;
23702;SDS011;12030;50.376;8.762;2023-04-01T11:53:00;0.50;;;0.30;;
23702;SDS011;12030;50.376;8.762;2023-04-01T12:06:49;0.67;;;0.27;;
23702;SDS011;12030;50.376;8.762;2023-04-01T12:09:27;2.10;;;0.40;;
23702;SDS011;12030;50.376;8.762;2023-04-01T12:15:13;2.30;;;0.30;;
23702;SDS011;12030;50.376;8.762;2023-04-01T12:21:09;1.57;;;0.50;;
23702;SDS011;12030;50.376;8.762;2023-04-01T12:23:45;0.60;;;0.30;;
23702;SDS011;12030;50.376;8.762;2023-04-01T12:37:50;0.70;;;0.30;;
23702;SDS011;12030;50.376;8.762;2023-04-01T12:51:29;0.50;;;0.40;;
23702;SDS011;12030;50.376;8.762;2023-04-01T12:54:09;0.40;;;0.30;;
23702;SDS011;12030;50.376;8.762;2023-04-01T13:05:45;0.40;;;0.27;;
23702;SDS011;12030;50.376;8.762;2023-04-01T13:19:39;0.40;;;0.30;;
23702;SDS011;12030;50.376;8.762;2023-04-01T13:24:51;0.53;;;0.40;;
23702;SDS011;12030;50.376;8.762;2023-04-01T13:27:34;0.70;;;0.40;;
23702;SDS011;12030;50.376;8.762;2023-04-01T13:35:46;1.43;;;0.40;;
23702;SDS011;12030;50.376;8.762;2023-04-01T13:41:10;0.97;;;0.30;;
23702;SDS011;12030;50.376;8.762;2023-04-01T13:43:39;0.83;;;0.40;;
23702;SDS011;12030;50.376;8.762;2023-04-01T13:48:58;0.30;;;0.13;;
23702;SDS011;12030;50.376;8.762;2023-04-01T14:10:43;2.10;;;0.30;;
23702;SDS011;12030;50.376;8.762;2023-04-01T14:16:20;1.70;;;0.40;;
23702;SDS011;12030;50.376;8.762;2023-04-01T14:22:11;0.37;;;0.20;;
23702;SDS011;12030;50.376;8.762;2023-04-01T14:25:23;0.50;;;0.27;;
23702;SDS011;12030;50.376;8.762;2023-04-01T14:33:21;0.97;;;0.30;;
23702;SDS011;12030;50.376;8.762;2023-04-01T14:42:23;0.40;;;0.40;;
23702;SDS011;12030;50.376;8.762;2023-04-01T14:54:00;0.20;;;0.17;;
23702;SDS011;12030;50.376;8.762;2023-04-01T14:56:38;0.50;;;0.20;;
23702;SDS011;12030;50.376;8.762;2023-04-01T15:01:50;0.40;;;0.20;;
23702;SDS011;12030;50.376;8.762;2023-04-01T15:13:20;0.20;;;0.10;;
23702;SDS011;12030;50.376;8.762;2023-04-01T15:18:56;1.33;;;0.50;;
23702;SDS011;12030;50.376;8.762;2023-04-01T15:21:48;1.23;;;0.30;;
23702;SDS011;12030;50.376;8.762;2023-04-01T15:24:22;0.50;;;0.30;;
23702;SDS011;12030;50.376;8.762;2023-04-01T15:27:20;0.60;;;0.20;;
23702;SDS011;12030;50.376;8.762;2023-04-01T15:38:07;1.30;;;0.40;;
23702;SDS011;12030;50.376;8.762;2023-04-01T15:40:53;1.53;;;0.30;;
23702;SDS011;12030;50.376;8.762;2023-04-01T15:43:49;0.50;;;0.20;;
23702;SDS011;12030;50.376;8.762;2023-04-01T15:46:30;0.53;;;0.27;;
23702;SDS011;12030;50.376;8.762;2023-04-01T15:49:10;0.50;;;0.10;;
23702;SDS011;12030;50.376;8.762;2023-04-01T15:52:43;0.97;;;0.20;;
23702;SDS011;12030;50.376;8.762;2023-04-01T15:55:00;0.23;;;0.10;;
23702;SDS011;12030;50.376;8.762;2023-04-01T15:57:56;0.80;;;0.70;;
23702;SDS011;12030;50.376;8.762;2023-04-01T16:00:53;1.27;;;0.30;;
23702;SDS011;12030;50.376;8.762;2023-04-01T16:03:36;0.83;;;0.20;;
23702;SDS011;12030;50.376;8.762;2023-04-01T16:22:35;1.50;;;0.30;;
23702;SDS011;12030;50.376;8.762;2023-04-01T16:28:09;0.73;;;0.30;;
23702;SDS011;12030;50.376;8.762;2023-04-01T16:30:50;0.63;;;0.30;;
23702;SDS011;12030;50.376;8.762;2023-04-01T16:39:06;0.67;;;0.50;;
23702;SDS011;12030;50.376;8.762;2023-04-01T16:41:48;0.83;;;0.40;;
23702;SDS011;12030;50.376;8.762;2023-04-01T16:44:24;1.40;;;0.50;;
23702;SDS011;12030;50.376;8.762;2023-04-01T16:46:52;0.67;;;0.30;;
23702;SDS011;12030;50.376;8.762;2023-04-01T16:57:27;1.53;;;0.30;;
23702;SDS011;12030;50.376;8.762;2023-04-01T17:00:19;0.20;;;0.10;;
23702;SDS011;12030;50.376;8.762;2023-04-01T17:08:46;3.43;;;0.50;;
23702;SDS011;12030;50.376;8.762;2023-04-01T17:11:26;1.27;;;0.40;;
23702;SDS011;12030;50.376;8.762;2023-04-01T17:14:03;0.60;;;0.40;;
23702;SDS011;12030;50.376;8.762;2023-04-01T17:16:52;2.57;;;0.60;;
23702;SDS011;12030;50.376;8.762;2023-04-01T17:19:29;1.10;;;0.40;;
23702;SDS011;12030;50.376;8.762;2023-04-01T17:25:04;2.93;;;0.67;;
23702;SDS011;12030;50.376;8.762;2023-04-01T17:27:36;0.77;;;0.40;;
23702;SDS011;12030;50.376;8.762;2023-04-01T17:30:24;1.70;;;0.40;;
23702;SDS011;12030;50.376;8.762;2023-04-01T17:33:03;0.50;;;0.40;;
23702;SDS011;12030;50.376;8.762;2023-04-01T17:52:39;0.97;;;0.40;;
23702;SDS011;12030;50.376;8.762;2023-04-01T17:58:17;1.03;;;0.53;;
23702;SDS011;12030;50.376;8.762;2023-04-01T18:01:01;1.50;;;0.60;;
23702;SDS011;12030;50.376;8.762;2023-04-01T18:04:04;1.40;;;0.60;;
23702;SDS011;12030;50.376;8.762;2023-04-01T18:14:37;1.10;;;1.00;;
23702;SDS011;12030;50.376;8.762;2023-04-01T18:17:40;2.13;;;0.90;;
23702;SDS011;12030;50.376;8.762;2023-04-01T18:25:28;1.27;;;0.67;;
23702;SDS011;12030;50.376;8.762;2023-04-01T18:30:57;0.53;;;0.50;;
23702;SDS011;12030;50.376;8.762;2023-04-01T18:36:45;1.63;;;0.83;;
23702;SDS011;12030;50.376;8.762;2023-04-01T18:39:23;1.80;;;0.97;;
23702;SDS011;12030;50.376;8.762;2023-04-01T18:44:50;1.47;;;0.73;;
23702;SDS011;12030;50.376;8.762;2023-04-01T18:53:13;2.47;;;0.97;;
23702;SDS011;12030;50.376;8.762;2023-04-01T18:55:56;2.33;;;1.13;;
23702;SDS011;12030;50.376;8.762;2023-04-01T18:58:29;1.10;;;1.00;;
23702;SDS011;12030;50.376;8.762;2023-04-01T19:06:50;1.30;;;0.77;;
23702;SDS011;12030;50.376;8.762;2023-04-01T19:09:22;1.67;;;0.90;;
23702;SDS011;12030;50.376;8.762;2023-04-01T19:11:53;1.00;;;0.90;;
23702;SDS011;12030;50.376;8.762;2023-04-01T19:14:49;1.10;;;1.00;;
23702;SDS011;12030;50.376;8.762;2023-04-01T19:18:09;1.20;;;0.90;;
23702;SDS011;12030;50.376;8.762;2023-04-01T19:23:37;0.97;;;0.80;;
23702;SDS011;12030;50.376;8.762;2023-04-01T19:36:33;1.30;;;0.90;;
23702;SDS011;12030;50.376;8.762;2023-04-01T19:49:47;1.30;;;0.93;;
23702;SDS011;12030;50.376;8.762;2023-04-01T19:52:32;1.73;;;1.10;;
23702;SDS011;12030;50.376;8.762;2023-04-01T20:07:57;1.23;;;0.87;;
23702;SDS011;12030;50.376;8.762;2023-04-01T20:10:32;0.77;;;0.60;;
23702;SDS011;12030;50.376;8.762;2023-04-01T20:13:25;1.20;;;0.70;;
23702;SDS011;12030;50.376;8.762;2023-04-01T20:16:04;1.60;;;0.90;;
23702;SDS011;12030;50.376;8.762;2023-04-01T20:18:34;2.30;;;1.00;;
23702;SDS011;12030;50.376;8.762;2023-04-01T20:26:48;3.83;;;1.00;;
23702;SDS011;12030;50.376;8.762;2023-04-01T20:29:34;1.87;;;1.00;;
23702;SDS011;12030;50.376;8.762;2023-04-01T20:37:48;1.53;;;0.83;;
23702;SDS011;12030;50.376;8.762;2023-04-01T20:40:30;2.27;;;1.23;;
23702;SDS011;12030;50.376;8.762;2023-04-01T20:48:30;1.23;;;1.10;;
23702;SDS011;12030;50.376;8.762;2023-04-01T20:51:25;0.70;;;0.70;;
23702;SDS011;12030;50.376;8.762;2023-04-01T20:56:35;0.90;;;0.73;;
23702;SDS011;12030;50.376;8.762;2023-04-01T21:07:48;1.67;;;1.17;;
23702;SDS011;12030;50.376;8.762;2023-04-01T21:15:33;2.53;;;0.90;;
23702;SDS011;12030;50.376;8.762;2023-04-01T21:21:03;2.17;;;1.10;;
23702;SDS011;12030;50.376;8.762;2023-04-01T21:39:05;0.87;;;0.87;;
23702;SDS011;12030;50.376;8.762;2023-04-01T21:41:35;0.77;;;0.70;;
23702;SDS011;12030;50.376;8.762;2023-04-01T21:50:29;2.70;;;1.00;;
23702;SDS011;12030;50.376;8.762;2023-04-01T21:52:51;1.20;;;0.83;;
23702;SDS011;12030;50.376;8.762;2023-04-01T22:01:40;2.70;;;1.00;;
23702;SDS011;12030;50.376;8.762;2023-04-01T22:04:35;1.53;;;1.10;;
23702;SDS011;12030;50.376;8.762;2023-04-01T22:07:23;1.60;;;1.07;;
23702;SDS011;12030;50.376;8.762;2023-04-01T22:10:19;1.07;;;1.03;;
23702;SDS011;12030;50.376;8.762;2023-04-01T22:21:37;1.10;;;0.83;;
23702;SDS011;12030;50.376;8.762;2023-04-01T22:27:10;2.20;;;0.97;;
23702;SDS011;12030;50.376;8.762;2023-04-01T22:30:04;0.90;;;0.90;;
23702;SDS011;12030;50.376;8.762;2023-04-01T22:32:32;0.70;;;0.70;;
23702;SDS011;12030;50.376;8.762;2023-04-01T22:41:00;1.93;;;0.70;;
23702;SDS011;12030;50.376;8.762;2023-04-01T22:43:45;0.60;;;0.60;;
23702;SDS011;12030;50.376;8.762;2023-04-01T22:46:20;0.80;;;0.80;;
23702;SDS011;12030;50.376;8.762;2023-04-01T22:49:07;1.07;;;0.70;;
23702;SDS011;12030;50.376;8.762;2023-04-01T22:56:52;0.70;;;0.70;;
23702;SDS011;12030;50.376;8.762;2023-04-01T23:01:51;0.87;;;0.60;;
23702;SDS011;12030;50.376;8.762;2023-04-01T23:04:24;1.43;;;0.60;;
23702;SDS011;12030;50.376;8.762;2023-04-01T23:06:57;0.70;;;0.63;;
23702;SDS011;12030;50.376;8.762;2023-04-01T23:09:27;1.10;;;0.73;;
23702;SDS011;12030;50.376;8.762;2023-04-01T23:20:17;1.20;;;1.10;;
23702;SDS011;12030;50.376;8.762;2023-04-01T23:23:20;0.90;;;0.90;;
23702;SDS011;12030;50.376;8.762;2023-04-01T23:28:45;2.80;;;1.47;;
23702;SDS011;12030;50.376;8.762;2023-04-01T23:31:26;2.67;;;1.57;;
23702;SDS011;12030;50.376;8.762;2023-04-01T23:33:58;1.93;;;1.20;;
23702;SDS011;12030;50.376;8.762;2023-04-01T23:36:26;1.63;;;1.30;;
23702;SDS011;12030;50.376;8.762;2023-04-01T23:38:52;1.40;;;1.30;;
23702;SDS011;12030;50.376;8.762;2023-04-01T23:41:26;1.37;;;1.20;;
23702;SDS011;12030;50.376;8.762;2023-04-01T23:44:15;3.90;;;1.40;;
23702;SDS011;12030;50.376;8.762;2023-04-01T23:46:42;1.57;;;1.47;;
23702;SDS011;12030;50.376;8.762;2023-04-01T23:49:12;4.10;;;1.33;;
23702;SDS011;12030;50.376;8.762;2023-04-01T23:51:55;1.77;;;1.67;;
23702;SDS011;12030;50.376;8.762;2023-04-01T23:54:24;1.90;;;1.80;;
23702;SDS011;12030;50.376;8.762;2023-04-01T23:56:58;2.43;;;2.00;;
23702;SDS011;12030;50.376;8.762;2023-04-01T23:59:27;2.30;;;2.17;;
